Time;durP1;ratioP1;P1;durP2;ratioP2;P2;SDS_P1;SDS_P2;PMS_P1;PMS_P2;Temp;Humidity;BMP_temperature;BMP_pressure;BME280_temperature;BME280_humidity;BME280_pressure;Samples;Min_cycle;Max_cycle;Signal;HPM_P1;HPM_P2
2022/05/13 00:00:58;;;;;;;;;;;10.20;99.90;;;;;;5051648;28;19916;-62
2022/05/13 00:03:23;;;;;;;;;;;10.20;99.90;;;;;;5053230;28;19919;-62
2022/05/13 00:05:52;;;;;;;;;;;10.10;99.90;;;;;;5053354;28;20345;-62
2022/05/13 00:08:18;;;;;;;;;;;10.10;99.90;;;;;;5051771;28;20283;-62
2022/05/13 00:10:44;;;;;;;;;;;10.10;99.90;;;;;;5054345;28;19913;-62
2022/05/13 00:13:10;;;;;;;;;;;10.10;99.90;;;;;;5052962;28;19920;-62
2022/05/13 00:15:35;;;;;;;;;;;10.10;99.90;;;;;;5050584;28;20431;-62
2022/05/13 00:18:01;;;;;;;;;;;10.00;99.90;;;;;;5052550;28;19952;-62
2022/05/13 00:20:27;;;;;;;;;;;10.10;99.90;;;;;;5053731;28;20022;-62
2022/05/13 00:22:54;;;;;;;;;;;10.00;99.90;;;;;;5049073;28;19912;-62
2022/05/13 00:25:22;;;;;;;;;;;10.00;99.90;;;;;;5051939;28;19955;-61
2022/05/13 00:27:47;;;;;;;;;;;10.10;99.90;;;;;;5053891;28;19951;-62
2022/05/13 00:30:14;;;;;;;;;;;10.20;99.90;;;;;;5051070;28;19959;-61
2022/05/13 00:32:40;;;;;;;;;;;10.30;99.90;;;;;;5051187;28;20327;-62
2022/05/13 00:35:06;;;;;;;;;;;10.40;99.90;;;;;;5053208;28;19919;-61
2022/05/13 00:37:32;;;;;;;;;;;10.50;99.90;;;;;;5049546;28;19912;-61
2022/05/13 00:39:58;;;;;;;;;;;10.60;99.90;;;;;;5051382;28;20448;-62
2022/05/13 00:42:24;;;;;;;;;;;10.60;99.90;;;;;;5057567;28;20334;-62
2022/05/13 00:44:49;;;;;;;;;;;10.60;99.90;;;;;;5055207;28;20363;-62
2022/05/13 00:47:15;;;;;;;;;;;10.60;99.90;;;;;;5055356;28;19912;-62
2022/05/13 00:49:41;;;;;;;;;;;10.60;99.90;;;;;;5049690;28;19912;-62
2022/05/13 00:52:10;;;;;;;;;;;10.70;99.90;;;;;;5050845;28;19925;-62
2022/05/13 00:54:37;;;;;;;;;;;10.60;99.90;;;;;;5050372;28;19920;-62
2022/05/13 00:57:03;;;;;;;;;;;10.50;99.90;;;;;;5052343;28;20000;-61
2022/05/13 00:59:30;;;;;;;;;;;10.60;99.90;;;;;;5051004;28;20003;-62
2022/05/13 01:01:56;;;;;;;;;;;10.60;99.90;;;;;;5047616;28;19964;-62
2022/05/13 01:04:22;;;;;;;;;;;10.60;99.90;;;;;;5056096;28;19987;-61
2022/05/13 01:06:50;;;;;;;;;;;10.80;99.90;;;;;;5050716;28;19913;-62
2022/05/13 01:09:16;;;;;;;;;;;10.80;99.90;;;;;;5054513;28;19912;-62
2022/05/13 01:11:43;;;;;;;;;;;10.80;99.90;;;;;;5048383;28;20368;-62
2022/05/13 01:14:11;;;;;;;;;;;10.80;99.90;;;;;;5047157;28;20015;-61
2022/05/13 01:19:21;;;;;;;;;;;10.70;99.90;;;;;;5054538;28;19916;-61
2022/05/13 01:21:48;;;;;;;;;;;10.80;99.90;;;;;;5055420;28;19916;-62
2022/05/13 01:24:15;;;;;;;;;;;10.80;99.90;;;;;;5060050;28;20008;-62
2022/05/13 01:26:41;;;;;;;;;;;10.70;99.90;;;;;;5054472;28;20243;-62
2022/05/13 01:29:06;;;;;;;;;;;10.60;99.90;;;;;;5057170;28;20372;-62
2022/05/13 01:31:33;;;;;;;;;;;10.50;99.90;;;;;;5055856;28;19929;-62
2022/05/13 01:34:05;;;;;;;;;;;10.60;99.90;;;;;;5060466;28;19955;-62
2022/05/13 01:36:31;;;;;;;;;;;10.70;99.90;;;;;;5052894;28;20401;-61
2022/05/13 01:38:58;;;;;;;;;;;10.70;99.90;;;;;;5055203;28;19916;-61
2022/05/13 01:41:24;;;;;;;;;;;10.70;99.90;;;;;;5053581;28;20046;-61
2022/05/13 01:43:50;;;;;;;;;;;10.80;99.90;;;;;;5059073;28;20388;-61
2022/05/13 01:46:16;;;;;;;;;;;10.70;99.90;;;;;;5051075;28;19919;-62
2022/05/13 01:48:41;;;;;;;;;;;10.80;99.90;;;;;;5055896;28;19935;-62
2022/05/13 01:51:07;;;;;;;;;;;10.70;99.90;;;;;;5051438;28;19921;-61
2022/05/13 01:53:33;;;;;;;;;;;10.70;99.90;;;;;;5055846;28;20014;-62
2022/05/13 01:55:58;;;;;;;;;;;10.50;99.90;;;;;;5055747;28;19919;-62
2022/05/13 01:58:24;;;;;;;;;;;10.30;99.90;;;;;;5053961;28;20000;-62
2022/05/13 02:00:51;;;;;;;;;;;10.20;99.90;;;;;;5056493;28;19927;-62
2022/05/13 02:06:03;;;;;;;;;;;10.00;99.90;;;;;;5058713;28;19977;-61
2022/05/13 02:08:28;;;;;;;;;;;10.00;99.90;;;;;;5052461;28;19939;-62
2022/05/13 02:10:54;;;;;;;;;;;10.10;99.90;;;;;;5057969;28;19921;-61
2022/05/13 02:13:19;;;;;;;;;;;10.40;99.90;;;;;;5049874;28;19995;-62
2022/05/13 02:15:45;;;;;;;;;;;10.40;99.90;;;;;;5054431;28;19913;-61
2022/05/13 02:18:11;;;;;;;;;;;10.20;99.90;;;;;;5055017;28;20378;-62
2022/05/13 02:20:37;;;;;;;;;;;10.10;99.90;;;;;;5053912;28;19956;-62
2022/05/13 02:23:03;;;;;;;;;;;9.90;99.90;;;;;;5056481;28;19912;-62
2022/05/13 02:25:29;;;;;;;;;;;10.00;99.90;;;;;;5051986;28;20446;-61
2022/05/13 02:27:56;;;;;;;;;;;10.20;99.90;;;;;;5054276;28;19913;-61
2022/05/13 02:30:22;;;;;;;;;;;10.10;99.90;;;;;;5055031;28;19941;-62
2022/05/13 02:32:48;;;;;;;;;;;10.00;99.90;;;;;;5054151;28;19949;-61
2022/05/13 02:35:13;;;;;;;;;;;9.80;99.90;;;;;;5055584;28;20293;-61
2022/05/13 02:37:39;;;;;;;;;;;9.90;99.90;;;;;;5050018;28;19920;-61
2022/05/13 02:40:04;;;;;;;;;;;9.90;99.90;;;;;;5062038;28;19963;-62
2022/05/13 02:42:30;;;;;;;;;;;9.80;99.90;;;;;;5055872;28;20360;-62
2022/05/13 02:44:55;;;;;;;;;;;9.80;99.90;;;;;;5057078;28;19913;-61
2022/05/13 02:47:21;;;;;;;;;;;9.90;99.90;;;;;;5055864;28;20032;-61
2022/05/13 02:49:46;;;;;;;;;;;10.20;99.90;;;;;;5053699;28;20222;-61
2022/05/13 02:52:12;;;;;;;;;;;10.30;99.90;;;;;;5054622;28;19927;-62
2022/05/13 02:54:38;;;;;;;;;;;10.20;99.90;;;;;;5052188;28;19913;-61
2022/05/13 02:57:04;;;;;;;;;;;10.30;99.90;;;;;;5049828;28;20323;-61
2022/05/13 02:59:29;;;;;;;;;;;10.20;99.90;;;;;;5052373;28;20376;-61
2022/05/13 03:01:55;;;;;;;;;;;10.20;99.90;;;;;;5050007;28;19925;-62
2022/05/13 03:04:21;;;;;;;;;;;10.10;99.90;;;;;;5058823;28;20007;-61
2022/05/13 03:06:46;;;;;;;;;;;10.30;99.90;;;;;;5058439;28;20508;-62
2022/05/13 03:09:12;;;;;;;;;;;10.10;99.90;;;;;;5053876;28;19921;-61
2022/05/13 03:11:38;;;;;;;;;;;10.10;99.90;;;;;;5048324;28;19916;-62
2022/05/13 03:14:03;;;;;;;;;;;10.30;99.90;;;;;;5049757;28;19913;-62
2022/05/13 03:16:30;;;;;;;;;;;10.50;99.90;;;;;;5050103;28;19919;-62
2022/05/13 03:18:58;;;;;;;;;;;10.50;99.90;;;;;;5055736;28;19916;-62
2022/05/13 03:21:24;;;;;;;;;;;10.30;99.90;;;;;;5057718;28;19909;-62
2022/05/13 03:23:50;;;;;;;;;;;10.10;99.90;;;;;;5053232;28;20436;-61
2022/05/13 03:26:16;;;;;;;;;;;10.20;99.90;;;;;;5049841;28;20172;-61
2022/05/13 03:28:42;;;;;;;;;;;10.20;99.90;;;;;;5053462;28;19913;-61
2022/05/13 03:31:07;;;;;;;;;;;9.90;99.90;;;;;;5053088;28;19936;-62
2022/05/13 03:33:33;;;;;;;;;;;9.70;99.90;;;;;;5047798;28;19917;-62
2022/05/13 03:35:59;;;;;;;;;;;9.50;99.90;;;;;;5055215;28;19960;-62
2022/05/13 03:38:24;;;;;;;;;;;9.40;99.90;;;;;;5049122;28;19913;-62
2022/05/13 03:40:50;;;;;;;;;;;9.40;99.90;;;;;;5056044;28;19916;-61
2022/05/13 03:43:16;;;;;;;;;;;9.60;99.90;;;;;;5053784;28;20739;-61
2022/05/13 03:45:42;;;;;;;;;;;9.90;99.90;;;;;;5059780;28;20295;-61
2022/05/13 03:48:08;;;;;;;;;;;9.90;99.90;;;;;;5053167;28;19961;-61
2022/05/13 03:50:34;;;;;;;;;;;10.00;99.90;;;;;;5049874;28;20376;-61
2022/05/13 03:53:00;;;;;;;;;;;10.10;99.90;;;;;;5049733;28;19920;-61
2022/05/13 03:55:25;;;;;;;;;;;10.20;99.90;;;;;;5050585;28;19965;-61
2022/05/13 03:57:51;;;;;;;;;;;10.20;99.90;;;;;;5050927;28;19912;-61
2022/05/13 04:00:17;;;;;;;;;;;10.20;99.90;;;;;;5047916;28;19916;-61
2022/05/13 04:02:42;;;;;;;;;;;10.30;99.90;;;;;;5050923;28;19913;-61
2022/05/13 04:10:36;;;;;;;;;;;10.60;99.90;;;;;;5052845;28;19949;-61
2022/05/13 04:16:04;;;;;;;;;;;10.50;99.90;;;;;;5050277;28;20395;-61
2022/05/13 04:18:30;;;;;;;;;;;10.50;99.90;;;;;;5050576;28;19948;-61
2022/05/13 04:20:56;;;;;;;;;;;10.50;99.90;;;;;;5053631;28;19975;-61
2022/05/13 04:23:21;;;;;;;;;;;10.50;99.90;;;;;;5047644;28;20419;-61
2022/05/13 04:25:47;;;;;;;;;;;10.50;99.90;;;;;;5055640;28;19921;-61
2022/05/13 04:28:12;;;;;;;;;;;10.50;99.90;;;;;;5057111;28;20434;-61
2022/05/13 04:30:38;;;;;;;;;;;10.50;99.90;;;;;;5054822;28;20291;-61
2022/05/13 04:33:03;;;;;;;;;;;10.50;99.90;;;;;;5053193;28;19962;-62
2022/05/13 04:35:29;;;;;;;;;;;10.40;99.90;;;;;;5050390;28;20380;-61
2022/05/13 04:37:55;;;;;;;;;;;10.40;99.90;;;;;;5053719;28;19917;-61
2022/05/13 04:40:20;;;;;;;;;;;10.40;99.90;;;;;;5056381;28;20015;-62
2022/05/13 04:42:53;;;;;;;;;;;10.30;99.90;;;;;;5049897;28;20143;-62
2022/05/13 04:45:23;;;;;;;;;;;10.30;99.90;;;;;;5048235;28;19952;-62
2022/05/13 04:50:33;;;;;;;;;;;10.20;99.90;;;;;;5051197;28;19920;-61
2022/05/13 04:52:59;;;;;;;;;;;10.20;99.90;;;;;;5054828;28;19917;-61
2022/05/13 04:55:25;;;;;;;;;;;10.20;99.90;;;;;;5055901;28;19991;-61
2022/05/13 04:57:51;;;;;;;;;;;10.40;99.90;;;;;;5053524;28;20372;-61
2022/05/13 05:00:17;;;;;;;;;;;10.50;99.90;;;;;;5050319;28;19990;-61
2022/05/13 05:02:42;;;;;;;;;;;10.60;99.90;;;;;;5053874;28;20538;-61
2022/05/13 05:05:08;;;;;;;;;;;10.70;99.90;;;;;;5057465;28;20327;-61
2022/05/13 05:07:33;;;;;;;;;;;10.80;99.90;;;;;;5055126;28;20008;-61
2022/05/13 05:09:59;;;;;;;;;;;10.80;99.90;;;;;;5058290;28;19916;-61
2022/05/13 05:12:24;;;;;;;;;;;10.90;99.90;;;;;;5049291;28;20035;-62
2022/05/13 05:14:50;;;;;;;;;;;11.10;99.90;;;;;;5057522;28;19917;-62
2022/05/13 05:17:15;;;;;;;;;;;11.20;99.90;;;;;;5057941;28;19916;-61
2022/05/13 05:19:40;;;;;;;;;;;11.30;99.90;;;;;;5055390;28;19948;-61
2022/05/13 05:22:06;;;;;;;;;;;11.30;99.90;;;;;;5057367;28;20292;-61
2022/05/13 05:24:31;;;;;;;;;;;11.30;99.90;;;;;;5056479;28;20004;-61
2022/05/13 05:26:57;;;;;;;;;;;11.30;99.90;;;;;;5060378;28;19913;-61
2022/05/13 05:29:23;;;;;;;;;;;11.40;99.90;;;;;;5049662;28;20483;-61
2022/05/13 05:31:48;;;;;;;;;;;11.50;99.90;;;;;;5049854;28;20019;-61
2022/05/13 05:34:14;;;;;;;;;;;11.70;99.90;;;;;;5055937;28;20004;-61
2022/05/13 05:36:40;;;;;;;;;;;11.90;99.90;;;;;;5050635;28;19999;-61
2022/05/13 05:39:05;;;;;;;;;;;11.80;99.90;;;;;;5052487;28;19916;-61
2022/05/13 05:41:31;;;;;;;;;;;11.90;99.90;;;;;;5054263;28;19921;-61
2022/05/13 05:43:56;;;;;;;;;;;11.90;99.90;;;;;;5050370;28;19947;-61
2022/05/13 05:46:22;;;;;;;;;;;11.90;99.90;;;;;;5055993;28;20354;-61
2022/05/13 05:48:47;;;;;;;;;;;11.90;99.90;;;;;;5048314;28;19917;-61
2022/05/13 05:51:13;;;;;;;;;;;11.80;99.90;;;;;;5048166;28;20039;-61
2022/05/13 05:59:07;;;;;;;;;;;11.90;99.90;;;;;;5056395;28;19924;-61
2022/05/13 06:01:33;;;;;;;;;;;12.20;99.90;;;;;;5051535;28;20412;-62
2022/05/13 06:03:58;;;;;;;;;;;12.40;99.90;;;;;;5053342;28;19920;-62
2022/05/13 06:06:24;;;;;;;;;;;12.50;99.90;;;;;;5055182;28;19924;-61
2022/05/13 06:08:50;;;;;;;;;;;12.50;99.90;;;;;;5054955;28;19916;-61
2022/05/13 06:11:15;;;;;;;;;;;12.50;99.90;;;;;;5055485;28;19923;-61
2022/05/13 06:13:41;;;;;;;;;;;12.40;99.90;;;;;;5053883;28;20131;-61
2022/05/13 06:16:09;;;;;;;;;;;12.40;99.90;;;;;;5047922;28;19920;-62
2022/05/13 06:18:36;;;;;;;;;;;12.50;99.90;;;;;;5051763;28;20204;-62
2022/05/13 06:21:01;;;;;;;;;;;12.50;99.90;;;;;;5047015;28;20108;-62
2022/05/13 06:23:27;;;;;;;;;;;12.50;99.90;;;;;;5046136;28;20324;-62
2022/05/13 06:25:52;;;;;;;;;;;12.60;99.90;;;;;;5047904;28;20019;-62
2022/05/13 06:28:18;;;;;;;;;;;12.70;99.90;;;;;;5048637;28;20380;-62
2022/05/13 06:30:43;;;;;;;;;;;12.80;99.90;;;;;;5052542;28;19928;-62
2022/05/13 06:33:09;;;;;;;;;;;12.90;99.90;;;;;;5051666;28;20253;-62
2022/05/13 06:35:35;;;;;;;;;;;13.00;99.90;;;;;;5053910;28;19913;-62
2022/05/13 06:38:00;;;;;;;;;;;13.00;99.90;;;;;;5060462;28;20007;-62
2022/05/13 06:40:26;;;;;;;;;;;13.00;99.90;;;;;;5053599;28;19974;-63
2022/05/13 06:42:52;;;;;;;;;;;12.90;99.90;;;;;;5052569;28;19909;-63
2022/05/13 06:45:17;;;;;;;;;;;12.80;99.90;;;;;;5052489;28;19916;-63
2022/05/13 06:47:43;;;;;;;;;;;12.80;99.90;;;;;;5053917;28;19913;-63
2022/05/13 06:50:10;;;;;;;;;;;12.70;99.90;;;;;;5049999;28;20603;-63
2022/05/13 06:52:35;;;;;;;;;;;12.80;99.90;;;;;;5054784;28;20058;-63
2022/05/13 06:55:01;;;;;;;;;;;12.90;99.90;;;;;;5053320;28;20036;-63
2022/05/13 06:57:26;;;;;;;;;;;13.00;99.90;;;;;;5053584;28;19916;-63
2022/05/13 06:59:52;;;;;;;;;;;13.00;99.90;;;;;;5050054;28;20078;-63
2022/05/13 07:02:18;;;;;;;;;;;13.10;99.90;;;;;;5052119;28;19946;-63
2022/05/13 07:04:45;;;;;;;;;;;13.20;99.90;;;;;;5052717;28;20209;-63
2022/05/13 07:07:11;;;;;;;;;;;13.40;99.90;;;;;;5048476;28;19913;-63
2022/05/13 07:09:36;;;;;;;;;;;13.40;99.90;;;;;;5050614;28;20626;-63
2022/05/13 07:12:02;;;;;;;;;;;13.30;99.90;;;;;;5049770;28;20661;-63
2022/05/13 07:14:28;;;;;;;;;;;13.40;99.90;;;;;;5058093;28;19959;-63
2022/05/13 07:16:54;;;;;;;;;;;13.40;99.90;;;;;;5051876;28;19970;-62
2022/05/13 07:19:20;;;;;;;;;;;13.50;99.90;;;;;;5051753;28;19913;-62
2022/05/13 07:21:46;;;;;;;;;;;13.60;99.90;;;;;;5054609;28;20477;-62
2022/05/13 07:24:12;;;;;;;;;;;13.80;99.90;;;;;;5055178;28;20044;-62
2022/05/13 07:26:38;;;;;;;;;;;13.90;99.90;;;;;;5052951;28;19987;-62
2022/05/13 07:29:05;;;;;;;;;;;14.10;99.90;;;;;;5056186;28;19916;-63
2022/05/13 07:31:30;;;;;;;;;;;14.30;99.90;;;;;;5045987;28;19929;-63
2022/05/13 07:33:56;;;;;;;;;;;14.30;99.90;;;;;;5054532;28;19909;-63
2022/05/13 07:36:21;;;;;;;;;;;14.50;99.90;;;;;;5056221;28;20382;-63
2022/05/13 07:41:31;;;;;;;;;;;15.40;99.90;;;;;;5052584;28;20012;-63
2022/05/13 07:43:57;;;;;;;;;;;15.90;99.90;;;;;;5050314;28;20003;-63
2022/05/13 07:46:22;;;;;;;;;;;15.60;99.90;;;;;;5052015;28;19981;-63
2022/05/13 07:48:48;;;;;;;;;;;15.60;99.90;;;;;;5050237;28;19913;-63
2022/05/13 07:51:13;;;;;;;;;;;15.90;99.90;;;;;;5055134;28;19917;-63
2022/05/13 07:53:39;;;;;;;;;;;16.10;99.90;;;;;;5051372;28;19920;-63
2022/05/13 07:56:05;;;;;;;;;;;16.30;99.90;;;;;;5053579;28;19916;-63
2022/05/13 07:58:31;;;;;;;;;;;16.00;99.90;;;;;;5050624;28;19916;-63
2022/05/13 08:00:58;;;;;;;;;;;16.40;99.90;;;;;;5051588;28;20265;-63
2022/05/13 08:03:26;;;;;;;;;;;16.50;99.90;;;;;;5051380;28;19998;-63
2022/05/13 08:05:52;;;;;;;;;;;16.90;99.90;;;;;;5060044;28;20028;-63
2022/05/13 08:08:30;;;;;;;;;;;17.20;99.90;;;;;;5053484;28;20003;-63
2022/05/13 08:10:57;;;;;;;;;;;17.10;99.90;;;;;;5049036;28;19916;-62
2022/05/13 08:13:23;;;;;;;;;;;17.00;99.90;;;;;;5050127;28;19939;-62
2022/05/13 08:15:49;;;;;;;;;;;16.50;99.90;;;;;;5047502;28;20384;-62
2022/05/13 08:18:15;;;;;;;;;;;16.90;99.90;;;;;;5044823;28;19991;-63
2022/05/13 08:20:41;;;;;;;;;;;17.40;99.90;;;;;;5058586;28;19912;-62
2022/05/13 08:23:06;;;;;;;;;;;17.90;99.90;;;;;;5053569;28;19913;-62
2022/05/13 08:25:32;;;;;;;;;;;17.90;99.90;;;;;;5051671;28;19940;-62
2022/05/13 08:27:57;;;;;;;;;;;18.10;99.90;;;;;;5039700;28;19917;-62
2022/05/13 08:30:23;;;;;;;;;;;17.80;99.80;;;;;;5046744;28;19929;-62
2022/05/13 08:32:51;;;;;;;;;;;17.70;99.50;;;;;;5048410;28;21780;-62
2022/05/13 08:35:16;;;;;;;;;;;18.10;99.10;;;;;;5057103;28;20360;-63
2022/05/13 08:37:47;;;;;;;;;;;18.40;99.00;;;;;;5053564;28;19925;-62
2022/05/13 08:40:22;;;;;;;;;;;18.50;97.90;;;;;;5050035;28;19974;-63
2022/05/13 08:42:48;;;;;;;;;;;18.40;98.40;;;;;;5044157;28;20289;-63
2022/05/13 08:45:16;;;;;;;;;;;18.50;97.60;;;;;;5055692;28;20710;-62
2022/05/13 08:47:49;;;;;;;;;;;18.60;98.00;;;;;;5053072;28;19912;-62
2022/05/13 08:50:19;;;;;;;;;;;18.50;97.60;;;;;;5055245;28;19926;-62
2022/05/13 08:53:06;;;;;;;;;;;19.40;97.80;;;;;;5047282;28;19959;-63
2022/05/13 08:55:34;;;;;;;;;;;19.50;96.20;;;;;;5048894;28;20035;-63
2022/05/13 08:58:01;;;;;;;;;;;18.80;96.60;;;;;;5055015;28;20372;-63
2022/05/13 09:00:35;;;;;;;;;;;18.60;97.70;;;;;;5051331;28;19995;-63
2022/05/13 09:03:12;;;;;;;;;;;18.30;96.60;;;;;;5051302;28;19916;-63
2022/05/13 09:05:44;;;;;;;;;;;18.60;96.70;;;;;;5053420;28;19920;-63
2022/05/13 09:08:10;;;;;;;;;;;19.20;96.90;;;;;;5046085;28;20020;-63
2022/05/13 09:10:44;;;;;;;;;;;19.50;95.90;;;;;;5045704;28;20003;-63
2022/05/13 09:13:17;;;;;;;;;;;19.10;96.10;;;;;;5052993;28;19916;-64
2022/05/13 09:15:47;;;;;;;;;;;19.10;94.40;;;;;;5047221;28;19917;-64
2022/05/13 09:18:31;;;;;;;;;;;19.20;95.40;;;;;;5047926;28;19917;-64
2022/05/13 09:20:59;;;;;;;;;;;19.80;95.70;;;;;;5055926;28;19920;-63
2022/05/13 09:23:25;;;;;;;;;;;18.90;94.50;;;;;;5051784;28;19961;-63
2022/05/13 09:26:05;;;;;;;;;;;18.70;96.10;;;;;;5055040;28;20387;-63
2022/05/13 09:28:32;;;;;;;;;;;19.30;96.20;;;;;;5060590;28;19909;-63
2022/05/13 09:31:06;;;;;;;;;;;18.80;96.30;;;;;;5045782;28;19925;-63
2022/05/13 09:33:39;;;;;;;;;;;19.00;96.40;;;;;;5051307;28;19932;-64
2022/05/13 09:36:05;;;;;;;;;;;18.60;94.90;;;;;;5056101;28;19912;-64
2022/05/13 09:38:32;;;;;;;;;;;18.80;96.10;;;;;;5049829;28;19919;-64
2022/05/13 09:40:59;;;;;;;;;;;19.60;95.50;;;;;;5058292;28;20757;-63
2022/05/13 09:43:32;;;;;;;;;;;20.00;93.00;;;;;;5054856;28;19935;-63
2022/05/13 09:46:09;;;;;;;;;;;19.30;93.30;;;;;;5052319;28;19912;-63
2022/05/13 09:48:36;;;;;;;;;;;19.40;93.90;;;;;;5053353;28;20030;-63
2022/05/13 09:51:22;;;;;;;;;;;20.20;92.50;;;;;;5055303;28;19978;-64
2022/05/13 09:54:01;;;;;;;;;;;19.90;91.20;;;;;;5052338;28;19960;-64
2022/05/13 09:56:43;;;;;;;;;;;20.20;90.70;;;;;;5054282;28;19917;-63
2022/05/13 09:59:22;;;;;;;;;;;20.50;90.70;;;;;;5052002;28;20615;-64
2022/05/13 10:01:48;;;;;;;;;;;19.40;90.60;;;;;;5047978;28;19928;-63
2022/05/13 10:04:19;;;;;;;;;;;18.70;91.70;;;;;;5049936;28;20844;-64
2022/05/13 10:06:45;;;;;;;;;;;18.30;92.10;;;;;;5046994;28;20062;-64
2022/05/13 10:15:04;;;;;;;;;;;18.10;93.80;;;;;;5049554;28;20414;-64
2022/05/13 10:17:30;;;;;;;;;;;18.20;94.20;;;;;;5048215;28;19916;-63
2022/05/13 10:20:01;;;;;;;;;;;18.10;93.90;;;;;;5052343;28;20007;-63
2022/05/13 10:22:33;;;;;;;;;;;18.40;94.20;;;;;;5047805;28;20535;-62
2022/05/13 10:25:04;;;;;;;;;;;18.70;92.90;;;;;;5053707;28;19939;-61
2022/05/13 10:27:36;;;;;;;;;;;18.90;92.80;;;;;;5052113;28;19923;-61
2022/05/13 10:30:28;;;;;;;;;;;18.90;93.40;;;;;;5043614;28;19916;-62
2022/05/13 10:32:53;;;;;;;;;;;18.10;93.40;;;;;;5044836;28;19929;-62
2022/05/13 10:35:20;;;;;;;;;;;18.30;93.80;;;;;;5055477;28;20299;-62
2022/05/13 10:38:05;;;;;;;;;;;18.50;93.20;;;;;;5050573;28;19929;-61
2022/05/13 10:40:34;;;;;;;;;;;18.40;93.60;;;;;;5048530;28;20041;-62
2022/05/13 10:43:02;;;;;;;;;;;18.10;93.50;;;;;;5044969;28;19947;-61
2022/05/13 10:45:30;;;;;;;;;;;17.80;93.30;;;;;;5057789;28;19912;-62
2022/05/13 10:48:13;;;;;;;;;;;17.60;94.00;;;;;;5046797;28;20349;-62
2022/05/13 10:50:49;;;;;;;;;;;17.60;95.30;;;;;;5051967;28;20730;-61
2022/05/13 10:53:23;;;;;;;;;;;17.50;94.70;;;;;;5048899;28;19997;-61
2022/05/13 10:56:14;;;;;;;;;;;17.40;95.20;;;;;;5040451;28;19924;-61
2022/05/13 10:58:50;;;;;;;;;;;17.40;95.70;;;;;;5048090;28;20020;-62
2022/05/13 11:01:45;;;;;;;;;;;17.60;95.80;;;;;;5044705;28;20014;-62
2022/05/13 11:04:17;;;;;;;;;;;17.80;95.70;;;;;;5057155;28;20304;-62
2022/05/13 11:06:54;;;;;;;;;;;18.50;94.70;;;;;;5045211;28;19913;-62
2022/05/13 11:09:40;;;;;;;;;;;18.50;94.40;;;;;;5057511;28;19940;-61
2022/05/13 11:12:12;;;;;;;;;;;19.80;93.60;;;;;;5049958;28;20011;-62
2022/05/13 11:14:37;;;;;;;;;;;21.60;92.60;;;;;;5051082;28;20095;-62
2022/05/13 11:17:11;;;;;;;;;;;22.20;90.50;;;;;;5053598;28;20702;-62
2022/05/13 11:19:56;;;;;;;;;;;21.50;90.70;;;;;;5047537;28;20023;-62
2022/05/13 11:22:40;;;;;;;;;;;20.20;91.30;;;;;;5057014;28;19924;-62
2022/05/13 11:28:14;;;;;;;;;;;19.80;92.90;;;;;;5054779;28;19982;-62
2022/05/13 11:30:46;;;;;;;;;;;19.30;93.10;;;;;;5032683;28;19925;-61
2022/05/13 11:33:37;;;;;;;;;;;18.60;93.80;;;;;;5035848;28;19920;-62
2022/05/13 11:36:15;;;;;;;;;;;18.60;94.20;;;;;;5034398;28;20448;-62
2022/05/13 11:38:46;;;;;;;;;;;18.40;94.50;;;;;;5032127;28;19999;-64
2022/05/13 11:41:13;;;;;;;;;;;18.20;95.40;;;;;;5037498;28;19912;-62
2022/05/13 11:43:38;;;;;;;;;;;18.40;94.80;;;;;;5034230;28;19945;-62
2022/05/13 11:46:07;;;;;;;;;;;18.30;95.00;;;;;;5036248;28;19920;-62
2022/05/13 11:48:43;;;;;;;;;;;18.10;95.10;;;;;;5041821;28;19913;-62
2022/05/13 11:51:15;;;;;;;;;;;18.30;94.90;;;;;;5031751;28;20700;-62
2022/05/13 11:53:40;;;;;;;;;;;18.90;94.90;;;;;;5037391;28;19916;-62
2022/05/13 11:56:32;;;;;;;;;;;19.30;93.60;;;;;;5031046;28;19929;-62
2022/05/13 11:59:09;;;;;;;;;;;19.70;93.10;;;;;;5028734;28;20011;-62
2022/05/13 12:01:37;;;;;;;;;;;20.30;92.90;;;;;;5024485;28;19921;-62
2022/05/13 12:04:12;;;;;;;;;;;20.70;92.40;;;;;;5024946;28;19917;-62
2022/05/13 12:06:49;;;;;;;;;;;21.00;92.30;;;;;;5022523;28;19946;-62
2022/05/13 12:09:21;;;;;;;;;;;22.30;91.50;;;;;;5024055;28;19917;-63
2022/05/13 12:11:50;;;;;;;;;;;21.60;91.90;;;;;;5021582;28;19921;-62
2022/05/13 12:14:25;;;;;;;;;;;21.70;90.80;;;;;;5029017;28;19917;-62
2022/05/13 12:17:11;;;;;;;;;;;21.50;90.80;;;;;;5023495;28;19971;-62
2022/05/13 12:20:00;;;;;;;;;;;21.80;90.80;;;;;;5030772;28;20347;-62
2022/05/13 12:22:44;;;;;;;;;;;21.80;90.80;;;;;;5029058;28;19970;-62
2022/05/13 12:25:10;;;;;;;;;;;21.10;91.10;;;;;;5026561;28;19919;-62
2022/05/13 12:27:45;;;;;;;;;;;20.30;91.90;;;;;;5027242;28;20008;-62
2022/05/13 12:30:28;;;;;;;;;;;20.10;92.00;;;;;;5027852;28;19932;-62
2022/05/13 12:32:54;;;;;;;;;;;20.30;92.20;;;;;;5026945;28;19935;-62
2022/05/13 12:38:18;;;;;;;;;;;20.80;91.80;;;;;;5038398;28;19987;-62
2022/05/13 12:40:43;;;;;;;;;;;20.70;91.60;;;;;;5027149;28;20327;-62
2022/05/13 12:43:17;;;;;;;;;;;19.70;92.50;;;;;;5026387;28;19917;-62
2022/05/13 12:45:45;;;;;;;;;;;20.20;92.20;;;;;;5027910;28;19939;-62
2022/05/13 12:48:13;;;;;;;;;;;20.30;91.70;;;;;;5026944;28;20009;-62
2022/05/13 12:50:47;;;;;;;;;;;20.10;92.10;;;;;;5032804;28;20030;-66
2022/05/13 12:53:28;;;;;;;;;;;20.70;91.20;;;;;;5024745;28;19924;-62
2022/05/13 12:55:54;;;;;;;;;;;21.40;91.40;;;;;;5028389;28;19959;-62
2022/05/13 12:58:20;;;;;;;;;;;21.90;90.40;;;;;;5029566;28;19948;-62
2022/05/13 13:00:47;;;;;;;;;;;21.20;91.00;;;;;;5027982;28;20298;-62
2022/05/13 13:03:13;;;;;;;;;;;21.00;90.90;;;;;;5031942;28;19925;-62
2022/05/13 13:05:42;;;;;;;;;;;21.60;90.80;;;;;;5053071;28;19957;-63
2022/05/13 13:08:12;;;;;;;;;;;21.70;90.50;;;;;;5034400;28;19924;-62
2022/05/13 13:10:46;;;;;;;;;;;21.90;91.00;;;;;;5039643;28;19931;-62
2022/05/13 13:13:20;;;;;;;;;;;23.20;87.60;;;;;;5044559;28;19925;-62
2022/05/13 13:15:52;;;;;;;;;;;23.40;86.00;;;;;;5032336;28;20863;-62
2022/05/13 13:18:27;;;;;;;;;;;22.90;87.10;;;;;;5033567;28;19921;-62
2022/05/13 13:20:58;;;;;;;;;;;23.40;85.60;;;;;;5033287;28;19916;-62
2022/05/13 13:23:26;;;;;;;;;;;23.50;85.40;;;;;;5035951;28;19928;-63
2022/05/13 13:25:52;;;;;;;;;;;22.00;86.20;;;;;;5037398;28;19938;-63
2022/05/13 13:28:23;;;;;;;;;;;21.90;88.40;;;;;;5035930;28;20929;-62
2022/05/13 13:30:57;;;;;;;;;;;21.40;87.80;;;;;;5029993;28;19921;-62
2022/05/13 13:33:29;;;;;;;;;;;21.00;89.60;;;;;;5029031;28;19951;-62
2022/05/13 13:36:09;;;;;;;;;;;20.60;90.30;;;;;;5039679;28;20753;-62
2022/05/13 13:38:35;;;;;;;;;;;20.80;90.40;;;;;;5036716;28;19913;-62
2022/05/13 13:41:01;;;;;;;;;;;21.20;88.70;;;;;;5036581;28;19924;-62
2022/05/13 13:43:28;;;;;;;;;;;21.90;89.10;;;;;;5031039;28;20047;-62
2022/05/13 13:45:53;;;;;;;;;;;22.10;86.90;;;;;;5039457;28;20269;-63
2022/05/13 13:48:32;;;;;;;;;;;21.90;87.30;;;;;;5035391;28;19924;-62
2022/05/13 13:50:58;;;;;;;;;;;22.20;87.30;;;;;;5039580;28;20463;-62
2022/05/13 13:53:27;;;;;;;;;;;22.30;87.40;;;;;;5038801;28;19916;-62
2022/05/13 13:55:52;;;;;;;;;;;22.00;86.80;;;;;;5034376;28;19996;-62
2022/05/13 13:58:35;;;;;;;;;;;22.00;86.20;;;;;;5040415;28;20004;-63
2022/05/13 14:01:14;;;;;;;;;;;22.20;86.90;;;;;;5034417;28;19916;-63
2022/05/13 14:03:40;;;;;;;;;;;22.40;86.60;;;;;;5036453;28;20435;-62
2022/05/13 14:06:07;;;;;;;;;;;22.10;87.10;;;;;;5032402;28;19948;-62
2022/05/13 14:08:36;;;;;;;;;;;21.70;85.90;;;;;;5034784;28;19970;-62
2022/05/13 14:11:06;;;;;;;;;;;21.20;88.20;;;;;;5039810;28;19921;-62
2022/05/13 14:13:37;;;;;;;;;;;21.30;88.00;;;;;;5033006;28;19921;-63
2022/05/13 14:16:06;;;;;;;;;;;22.70;87.50;;;;;;5037872;28;19925;-62
2022/05/13 14:18:34;;;;;;;;;;;22.80;87.30;;;;;;5037620;28;19948;-62
2022/05/13 14:21:18;;;;;;;;;;;23.30;84.40;;;;;;5031216;28;20629;-63
2022/05/13 14:23:44;;;;;;;;;;;22.80;85.30;;;;;;5040910;28;19917;-62
2022/05/13 14:26:10;;;;;;;;;;;22.90;85.20;;;;;;5056630;28;20352;-63
2022/05/13 14:28:47;;;;;;;;;;;22.90;85.60;;;;;;5049201;28;19921;-62
2022/05/13 14:31:15;;;;;;;;;;;23.60;83.70;;;;;;5035360;28;19917;-62
2022/05/13 14:33:45;;;;;;;;;;;23.50;83.50;;;;;;5047179;28;19919;-62
2022/05/13 14:36:11;;;;;;;;;;;23.40;84.40;;;;;;5040049;28;19923;-62
2022/05/13 14:42:04;;;;;;;;;;;23.30;84.20;;;;;;5038731;28;19975;-62
2022/05/13 14:44:40;;;;;;;;;;;24.90;81.30;;;;;;5035565;28;19917;-63
2022/05/13 14:47:14;;;;;;;;;;;25.50;79.20;;;;;;5038667;28;19917;-62
2022/05/13 14:49:58;;;;;;;;;;;23.80;79.90;;;;;;5033151;28;19984;-63
2022/05/13 14:52:25;;;;;;;;;;;22.80;82.50;;;;;;5033684;28;19979;-62
2022/05/13 14:54:51;;;;;;;;;;;22.60;83.20;;;;;;5032970;28;20554;-63
2022/05/13 14:57:18;;;;;;;;;;;23.70;82.50;;;;;;5030348;28;20516;-63
2022/05/13 14:59:56;;;;;;;;;;;25.00;80.90;;;;;;5031558;28;19968;-63
2022/05/13 15:02:36;;;;;;;;;;;25.30;79.80;;;;;;5035348;28;19923;-63
2022/05/13 15:05:08;;;;;;;;;;;24.40;77.70;;;;;;5037147;28;19913;-63
2022/05/13 15:07:38;;;;;;;;;;;23.20;81.00;;;;;;5040128;28;19916;-63